createdAt,value
2023-08-09T00:14:16.743Z,4.6
2023-08-09T00:29:26.684Z,2.1
2023-08-09T00:44:36.408Z,2.2
2023-08-09T00:59:46.138Z,2.1
2023-08-09T01:14:56.176Z,3.4
2023-08-09T01:30:06.134Z,2.4
2023-08-09T01:45:16.341Z,3
2023-08-09T02:00:27.219Z,3.3
2023-08-09T02:15:36.824Z,4.7
2023-08-09T02:30:46.775Z,4.5
2023-08-09T02:45:56.314Z,5.2
2023-08-09T03:01:06.312Z,6.5
2023-08-09T03:16:16.470Z,4.1
2023-08-09T03:31:26.310Z,4.7
2023-08-09T03:46:36.118Z,4.6
2023-08-09T04:01:46.157Z,11.2
2023-08-09T04:16:56.009Z,6.5
2023-08-09T04:32:05.414Z,10.3
2023-08-09T04:47:16.513Z,12.5
2023-08-09T05:02:27.550Z,8.4
2023-08-09T05:17:38.302Z,9.2
2023-08-09T05:32:48.327Z,14.4
2023-08-09T05:47:59.781Z,10.8
2023-08-09T06:03:10.032Z,12
2023-08-09T06:18:24.776Z,9.4
2023-08-09T06:33:34.698Z,11.7
2023-08-09T06:48:45.158Z,6.8
2023-08-09T07:03:55.734Z,6.2
2023-08-09T07:19:06.454Z,8
2023-08-09T07:34:16.433Z,3.4
2023-08-09T07:49:25.513Z,3
2023-08-09T08:05:21.162Z,5.5
2023-08-09T08:20:32.265Z,3.9
2023-08-09T08:35:42.686Z,6.2
2023-08-09T08:50:52.632Z,3.4
2023-08-09T09:06:03.078Z,3.1
2023-08-09T09:21:13.324Z,1.8
2023-08-09T09:36:23.365Z,2.4
2023-08-09T09:51:33.420Z,4
2023-08-09T10:06:43.495Z,2
2023-08-09T10:21:54.015Z,2.5
2023-08-09T10:37:04.170Z,3
2023-08-09T10:52:23.826Z,1.7
2023-08-09T11:07:34.740Z,1.6
2023-08-09T11:22:44.767Z,1.6
2023-08-09T11:37:54.498Z,3.5
2023-08-09T11:53:04.569Z,1.5
2023-08-09T12:08:15.486Z,2.6
2023-08-09T12:23:27.286Z,1.6
2023-08-09T12:38:40.605Z,2
2023-08-09T12:53:51.428Z,1.6
2023-08-09T13:08:59.755Z,2.3
2023-08-09T13:24:09.156Z,1.7
2023-08-09T13:39:19.445Z,3.8
2023-08-09T13:54:29.596Z,2.8
2023-08-09T14:09:39.594Z,1.6
2023-08-09T14:24:49.597Z,1.4
2023-08-09T14:39:59.544Z,2.4
2023-08-09T14:55:10.962Z,1.6
2023-08-09T15:10:21.130Z,2.1
2023-08-09T15:25:31.385Z,2.7
2023-08-09T15:40:41.007Z,2.4
2023-08-09T15:55:50.266Z,3.5
2023-08-09T16:10:59.441Z,2.1
2023-08-09T16:26:09.715Z,3.4
2023-08-09T16:41:19.113Z,1.7
2023-08-09T16:56:28.654Z,1.6
2023-08-09T17:11:37.237Z,2
2023-08-09T17:26:47.051Z,1.6
2023-08-09T17:41:56.212Z,1.9
2023-08-09T17:57:06.812Z,4.2
2023-08-09T18:12:16.452Z,1.8
2023-08-09T18:27:25.877Z,1.6
2023-08-09T18:42:35.283Z,2.2
2023-08-09T18:57:44.989Z,1.8
2023-08-09T19:12:54.637Z,3.5
2023-08-09T19:28:04.220Z,3.5
2023-08-09T19:43:13.405Z,2.8
2023-08-09T19:58:23.822Z,4.1
2023-08-09T20:13:33.764Z,5.5
2023-08-09T20:28:42.990Z,3
2023-08-09T20:43:52.418Z,4.3
2023-08-09T20:59:02.116Z,4.3
2023-08-09T21:14:11.683Z,4.5
2023-08-09T21:29:21.172Z,6.1
2023-08-09T21:44:31.118Z,6.5
2023-08-09T21:59:41.359Z,2.9
2023-08-09T22:14:51.404Z,11.1
2023-08-09T22:30:01.451Z,5.9
2023-08-09T22:45:10.973Z,6.7
2023-08-09T23:00:20.413Z,6.6
2023-08-09T23:15:30.108Z,8.7
2023-08-09T23:30:39.644Z,5.9
2023-08-09T23:45:49.444Z,3.9
